Portada
METAR-TAF:

METAR-TAF

Aeroports :

Laconia Municipal Airport

Laconia, Nova Hampshire, Estats Units d'Amèrica

latitud: 43-34N, longitud: 071-25W, altitud: 166 m

Observació

L'informe es va fer fa 49 minuts, a les 17:56 UTC
Vent 11 kt del Est
Temperatura 21°C
Humitat 43%
Pressió 1028 hPa
Visibilitat: 16.1 km
Cel clar

METAR: KLCI 251756Z AUTO 10011KT 10SM CLR 21/08 A3035 RMK AO2 SLP275 T02110083 10217 20156 56015

Hora: 14:45 (18:45 UTC)


TAF: manca

Observacions i pronòstics meteorològics de més de 4000 aeroports (METAR i TAF).

Les estacions disponibles són els punts grocs i vermells al mapa.

Posi el ratolí al punt desitjat per veure el nom de l'estació.

Feu clic per veure les observacions i els pronòstics meteorològics.

Per canviar el mapa: feu clic els botons verds amb una creu de color negre per apropar; al botó verd amb un guió per allunyar la imatge; o en les fletxes verdes per a mapes adjacents.


METAR-TAF: